sensor_id;sensor_type;location;lat;lon;timestamp;temperature;humidity
15765;DHT22;7983;50.744;7.086;2023-04-25T00:02:00;10.10;99.90
15765;DHT22;7983;50.744;7.086;2023-04-25T00:04:26;10.10;99.90
15765;DHT22;7983;50.744;7.086;2023-04-25T00:06:55;10.00;99.90
15765;DHT22;7983;50.744;7.086;2023-04-25T00:09:27;10.00;99.90
15765;DHT22;7983;50.744;7.086;2023-04-25T00:11:53;10.00;99.90
15765;DHT22;7983;50.744;7.086;2023-04-25T00:14:18;10.00;99.90
15765;DHT22;7983;50.744;7.086;2023-04-25T00:16:44;9.90;99.90
15765;DHT22;7983;50.744;7.086;2023-04-25T00:19:12;10.00;99.90
15765;DHT22;7983;50.744;7.086;2023-04-25T00:21:40;9.90;99.90
15765;DHT22;7983;50.744;7.086;2023-04-25T00:24:09;9.80;99.90
15765;DHT22;7983;50.744;7.086;2023-04-25T00:26:37;9.80;99.90
15765;DHT22;7983;50.744;7.086;2023-04-25T00:29:07;9.80;99.90
15765;DHT22;7983;50.744;7.086;2023-04-25T00:31:33;9.80;99.90
15765;DHT22;7983;50.744;7.086;2023-04-25T00:34:03;9.80;99.90
15765;DHT22;7983;50.744;7.086;2023-04-25T00:36:29;9.70;99.90
15765;DHT22;7983;50.744;7.086;2023-04-25T00:38:55;9.70;99.90
15765;DHT22;7983;50.744;7.086;2023-04-25T00:41:21;9.70;99.90
15765;DHT22;7983;50.744;7.086;2023-04-25T00:43:48;9.60;99.90
15765;DHT22;7983;50.744;7.086;2023-04-25T00:46:16;9.60;99.90
15765;DHT22;7983;50.744;7.086;2023-04-25T00:48:44;9.60;99.90
15765;DHT22;7983;50.744;7.086;2023-04-25T00:51:13;9.50;99.90
15765;DHT22;7983;50.744;7.086;2023-04-25T00:53:39;9.50;99.90
15765;DHT22;7983;50.744;7.086;2023-04-25T00:56:05;9.50;99.90
15765;DHT22;7983;50.744;7.086;2023-04-25T00:58:31;9.50;99.90
15765;DHT22;7983;50.744;7.086;2023-04-25T01:00:59;9.40;99.90
15765;DHT22;7983;50.744;7.086;2023-04-25T01:03:26;9.40;99.90
15765;DHT22;7983;50.744;7.086;2023-04-25T01:05:54;9.40;99.90
15765;DHT22;7983;50.744;7.086;2023-04-25T01:08:24;9.30;99.90
15765;DHT22;7983;50.744;7.086;2023-04-25T01:10:54;9.30;99.90
15765;DHT22;7983;50.744;7.086;2023-04-25T01:13:20;9.30;99.90
15765;DHT22;7983;50.744;7.086;2023-04-25T01:15:46;9.10;99.90
15765;DHT22;7983;50.744;7.086;2023-04-25T01:18:12;9.20;99.90
15765;DHT22;7983;50.744;7.086;2023-04-25T01:20:44;9.20;99.90
15765;DHT22;7983;50.744;7.086;2023-04-25T01:23:18;9.10;99.90
15765;DHT22;7983;50.744;7.086;2023-04-25T01:25:47;9.10;99.90
15765;DHT22;7983;50.744;7.086;2023-04-25T01:28:13;9.10;99.90
15765;DHT22;7983;50.744;7.086;2023-04-25T01:30:42;9.00;99.90
15765;DHT22;7983;50.744;7.086;2023-04-25T01:33:10;9.00;99.90
15765;DHT22;7983;50.744;7.086;2023-04-25T01:35:38;9.00;99.90
15765;DHT22;7983;50.744;7.086;2023-04-25T01:38:08;9.00;99.90
15765;DHT22;7983;50.744;7.086;2023-04-25T01:40:34;8.90;99.90
15765;DHT22;7983;50.744;7.086;2023-04-25T01:43:01;8.90;99.90
15765;DHT22;7983;50.744;7.086;2023-04-25T01:45:27;8.80;99.90
15765;DHT22;7983;50.744;7.086;2023-04-25T01:47:52;8.80;99.90
15765;DHT22;7983;50.744;7.086;2023-04-25T01:50:18;8.80;99.90
15765;DHT22;7983;50.744;7.086;2023-04-25T01:52:47;8.80;99.90
15765;DHT22;7983;50.744;7.086;2023-04-25T01:55:15;8.70;99.90
15765;DHT22;7983;50.744;7.086;2023-04-25T01:57:43;8.60;99.90
15765;DHT22;7983;50.744;7.086;2023-04-25T02:00:14;8.60;99.90
15765;DHT22;7983;50.744;7.086;2023-04-25T02:02:39;8.60;99.90
15765;DHT22;7983;50.744;7.086;2023-04-25T02:05:10;8.50;99.90
15765;DHT22;7983;50.744;7.086;2023-04-25T02:07:35;8.50;99.90
15765;DHT22;7983;50.744;7.086;2023-04-25T02:10:04;8.50;99.90
15765;DHT22;7983;50.744;7.086;2023-04-25T02:12:31;8.40;99.90
15765;DHT22;7983;50.744;7.086;2023-04-25T02:14:59;8.40;99.90
15765;DHT22;7983;50.744;7.086;2023-04-25T02:17:27;8.40;99.90
15765;DHT22;7983;50.744;7.086;2023-04-25T02:19:55;8.40;99.90
15765;DHT22;7983;50.744;7.086;2023-04-25T02:22:23;8.30;99.90
15765;DHT22;7983;50.744;7.086;2023-04-25T02:24:53;8.30;99.90
15765;DHT22;7983;50.744;7.086;2023-04-25T02:27:19;8.30;99.90
15765;DHT22;7983;50.744;7.086;2023-04-25T02:29:44;8.30;99.90
15765;DHT22;7983;50.744;7.086;2023-04-25T02:32:10;8.30;99.90
15765;DHT22;7983;50.744;7.086;2023-04-25T02:34:36;8.20;99.90
15765;DHT22;7983;50.744;7.086;2023-04-25T02:37:02;8.20;99.90
15765;DHT22;7983;50.744;7.086;2023-04-25T02:39:27;8.20;99.90
15765;DHT22;7983;50.744;7.086;2023-04-25T02:41:55;8.20;99.90
15765;DHT22;7983;50.744;7.086;2023-04-25T02:44:21;8.20;99.90
15765;DHT22;7983;50.744;7.086;2023-04-25T02:46:46;8.20;99.90
15765;DHT22;7983;50.744;7.086;2023-04-25T02:49:17;8.20;99.90
15765;DHT22;7983;50.744;7.086;2023-04-25T02:51:42;8.10;99.90
15765;DHT22;7983;50.744;7.086;2023-04-25T02:54:08;8.10;99.90
15765;DHT22;7983;50.744;7.086;2023-04-25T02:56:33;8.20;99.90
15765;DHT22;7983;50.744;7.086;2023-04-25T02:58:59;8.10;99.90
15765;DHT22;7983;50.744;7.086;2023-04-25T03:01:27;8.10;99.90
15765;DHT22;7983;50.744;7.086;2023-04-25T03:03:55;8.10;99.90
15765;DHT22;7983;50.744;7.086;2023-04-25T03:06:23;8.10;99.90
15765;DHT22;7983;50.744;7.086;2023-04-25T03:08:48;8.10;99.90
15765;DHT22;7983;50.744;7.086;2023-04-25T03:11:16;8.10;99.90
15765;DHT22;7983;50.744;7.086;2023-04-25T03:13:44;8.10;99.90
15765;DHT22;7983;50.744;7.086;2023-04-25T03:16:12;8.00;99.90
15765;DHT22;7983;50.744;7.086;2023-04-25T03:18:40;8.10;99.90
15765;DHT22;7983;50.744;7.086;2023-04-25T03:21:08;8.10;99.90
15765;DHT22;7983;50.744;7.086;2023-04-25T03:23:34;8.10;99.90
15765;DHT22;7983;50.744;7.086;2023-04-25T03:26:02;8.10;99.90
15765;DHT22;7983;50.744;7.086;2023-04-25T03:28:30;8.10;99.90
15765;DHT22;7983;50.744;7.086;2023-04-25T03:30:58;8.10;99.90
15765;DHT22;7983;50.744;7.086;2023-04-25T03:33:26;8.10;99.90
15765;DHT22;7983;50.744;7.086;2023-04-25T03:35:53;8.00;99.90
15765;DHT22;7983;50.744;7.086;2023-04-25T03:38:21;8.10;99.90
15765;DHT22;7983;50.744;7.086;2023-04-25T03:40:47;8.10;99.90
15765;DHT22;7983;50.744;7.086;2023-04-25T03:43:15;8.00;99.90
15765;DHT22;7983;50.744;7.086;2023-04-25T03:45:43;8.00;99.90
15765;DHT22;7983;50.744;7.086;2023-04-25T03:48:08;7.90;99.90
15765;DHT22;7983;50.744;7.086;2023-04-25T03:50:34;7.90;99.90
15765;DHT22;7983;50.744;7.086;2023-04-25T03:53:00;7.90;99.90
15765;DHT22;7983;50.744;7.086;2023-04-25T03:55:25;7.90;99.90
15765;DHT22;7983;50.744;7.086;2023-04-25T03:57:53;7.90;99.90
15765;DHT22;7983;50.744;7.086;2023-04-25T04:00:19;7.90;99.90
15765;DHT22;7983;50.744;7.086;2023-04-25T04:02:46;7.90;99.90
15765;DHT22;7983;50.744;7.086;2023-04-25T04:05:12;8.00;99.90
15765;DHT22;7983;50.744;7.086;2023-04-25T04:07:40;7.90;99.90
15765;DHT22;7983;50.744;7.086;2023-04-25T04:10:10;7.90;99.90
15765;DHT22;7983;50.744;7.086;2023-04-25T04:12:36;7.90;99.90
15765;DHT22;7983;50.744;7.086;2023-04-25T04:15:05;7.90;99.90
15765;DHT22;7983;50.744;7.086;2023-04-25T04:17:33;7.90;99.90
15765;DHT22;7983;50.744;7.086;2023-04-25T04:19:59;7.90;99.90
15765;DHT22;7983;50.744;7.086;2023-04-25T04:22:27;7.90;99.90
15765;DHT22;7983;50.744;7.086;2023-04-25T04:24:53;7.90;99.90
15765;DHT22;7983;50.744;7.086;2023-04-25T04:27:21;7.90;99.90
15765;DHT22;7983;50.744;7.086;2023-04-25T04:29:47;7.90;99.90
15765;DHT22;7983;50.744;7.086;2023-04-25T04:32:13;7.90;99.90
15765;DHT22;7983;50.744;7.086;2023-04-25T04:34:39;7.90;99.90
15765;DHT22;7983;50.744;7.086;2023-04-25T04:37:07;8.00;99.90
15765;DHT22;7983;50.744;7.086;2023-04-25T04:39:33;8.00;99.90
15765;DHT22;7983;50.744;7.086;2023-04-25T04:41:59;8.00;99.90
15765;DHT22;7983;50.744;7.086;2023-04-25T04:44:29;8.10;99.90
15765;DHT22;7983;50.744;7.086;2023-04-25T04:47:02;8.10;99.90
15765;DHT22;7983;50.744;7.086;2023-04-25T04:49:31;8.10;99.90
15765;DHT22;7983;50.744;7.086;2023-04-25T04:51:59;8.20;99.90
15765;DHT22;7983;50.744;7.086;2023-04-25T04:54:27;8.30;99.90
15765;DHT22;7983;50.744;7.086;2023-04-25T04:56:53;8.40;99.90
15765;DHT22;7983;50.744;7.086;2023-04-25T04:59:21;8.30;99.90
15765;DHT22;7983;50.744;7.086;2023-04-25T05:01:47;8.30;99.90
15765;DHT22;7983;50.744;7.086;2023-04-25T05:04:17;8.40;99.90
15765;DHT22;7983;50.744;7.086;2023-04-25T05:06:42;8.40;99.90
15765;DHT22;7983;50.744;7.086;2023-04-25T05:09:08;8.40;99.90
15765;DHT22;7983;50.744;7.086;2023-04-25T05:11:33;8.40;99.90
15765;DHT22;7983;50.744;7.086;2023-04-25T05:13:59;8.40;99.90
15765;DHT22;7983;50.744;7.086;2023-04-25T05:16:29;8.40;99.90
15765;DHT22;7983;50.744;7.086;2023-04-25T05:18:55;8.50;99.90
15765;DHT22;7983;50.744;7.086;2023-04-25T05:21:22;8.40;99.90
15765;DHT22;7983;50.744;7.086;2023-04-25T05:23:50;8.40;99.90
15765;DHT22;7983;50.744;7.086;2023-04-25T05:26:15;8.40;99.90
15765;DHT22;7983;50.744;7.086;2023-04-25T05:28:41;8.50;99.90
15765;DHT22;7983;50.744;7.086;2023-04-25T05:31:09;8.50;99.90
15765;DHT22;7983;50.744;7.086;2023-04-25T05:33:37;8.50;99.90
15765;DHT22;7983;50.744;7.086;2023-04-25T05:36:05;8.50;99.90
15765;DHT22;7983;50.744;7.086;2023-04-25T05:38:34;8.60;99.90
15765;DHT22;7983;50.744;7.086;2023-04-25T05:41:04;8.60;99.90
15765;DHT22;7983;50.744;7.086;2023-04-25T05:43:30;8.60;99.90
15765;DHT22;7983;50.744;7.086;2023-04-25T05:45:55;8.70;99.90
15765;DHT22;7983;50.744;7.086;2023-04-25T05:48:21;8.70;99.90
15765;DHT22;7983;50.744;7.086;2023-04-25T05:50:47;8.70;99.90
15765;DHT22;7983;50.744;7.086;2023-04-25T05:53:12;8.80;99.90
15765;DHT22;7983;50.744;7.086;2023-04-25T05:55:40;8.70;99.90
15765;DHT22;7983;50.744;7.086;2023-04-25T05:58:06;8.80;99.90
15765;DHT22;7983;50.744;7.086;2023-04-25T06:00:32;8.80;99.90
15765;DHT22;7983;50.744;7.086;2023-04-25T06:03:03;8.80;99.90
15765;DHT22;7983;50.744;7.086;2023-04-25T06:05:30;8.80;99.90
15765;DHT22;7983;50.744;7.086;2023-04-25T06:07:56;8.80;99.90
15765;DHT22;7983;50.744;7.086;2023-04-25T06:10:22;8.80;99.90
15765;DHT22;7983;50.744;7.086;2023-04-25T06:12:48;8.80;99.90
15765;DHT22;7983;50.744;7.086;2023-04-25T06:15:16;8.90;99.90
15765;DHT22;7983;50.744;7.086;2023-04-25T06:17:49;8.90;99.90
15765;DHT22;7983;50.744;7.086;2023-04-25T06:20:14;8.90;99.90
15765;DHT22;7983;50.744;7.086;2023-04-25T06:22:42;8.90;99.90
15765;DHT22;7983;50.744;7.086;2023-04-25T06:25:08;8.90;99.90
15765;DHT22;7983;50.744;7.086;2023-04-25T06:27:36;8.90;99.90
15765;DHT22;7983;50.744;7.086;2023-04-25T06:30:05;9.00;99.90
15765;DHT22;7983;50.744;7.086;2023-04-25T06:32:33;9.00;99.90
15765;DHT22;7983;50.744;7.086;2023-04-25T06:35:00;9.10;99.90
15765;DHT22;7983;50.744;7.086;2023-04-25T06:37:25;9.00;99.90
15765;DHT22;7983;50.744;7.086;2023-04-25T06:39:56;9.10;99.90
15765;DHT22;7983;50.744;7.086;2023-04-25T06:42:24;9.10;99.90
15765;DHT22;7983;50.744;7.086;2023-04-25T06:44:52;9.20;99.90
15765;DHT22;7983;50.744;7.086;2023-04-25T06:47:17;9.20;99.90
15765;DHT22;7983;50.744;7.086;2023-04-25T06:49:45;9.20;99.90
15765;DHT22;7983;50.744;7.086;2023-04-25T06:52:13;9.30;99.90
15765;DHT22;7983;50.744;7.086;2023-04-25T06:54:38;9.30;99.90
15765;DHT22;7983;50.744;7.086;2023-04-25T06:57:04;9.30;99.90
15765;DHT22;7983;50.744;7.086;2023-04-25T06:59:30;9.30;99.90
15765;DHT22;7983;50.744;7.086;2023-04-25T07:01:56;9.40;99.90
15765;DHT22;7983;50.744;7.086;2023-04-25T07:04:23;9.40;99.90
15765;DHT22;7983;50.744;7.086;2023-04-25T07:06:54;9.40;99.90
15765;DHT22;7983;50.744;7.086;2023-04-25T07:09:20;9.50;99.90
15765;DHT22;7983;50.744;7.086;2023-04-25T07:11:45;9.60;99.90
15765;DHT22;7983;50.744;7.086;2023-04-25T07:14:13;9.70;99.90
15765;DHT22;7983;50.744;7.086;2023-04-25T07:16:39;9.70;99.90
15765;DHT22;7983;50.744;7.086;2023-04-25T07:19:07;9.80;99.90
15765;DHT22;7983;50.744;7.086;2023-04-25T07:21:32;9.90;99.90
15765;DHT22;7983;50.744;7.086;2023-04-25T07:24:00;9.80;99.90
15765;DHT22;7983;50.744;7.086;2023-04-25T07:26:28;9.90;99.90
15765;DHT22;7983;50.744;7.086;2023-04-25T07:28:54;9.90;99.90
15765;DHT22;7983;50.744;7.086;2023-04-25T07:31:22;10.00;99.90
15765;DHT22;7983;50.744;7.086;2023-04-25T07:33:48;10.00;99.90
15765;DHT22;7983;50.744;7.086;2023-04-25T07:36:16;10.00;99.90
15765;DHT22;7983;50.744;7.086;2023-04-25T07:38:41;10.00;99.90
15765;DHT22;7983;50.744;7.086;2023-04-25T07:41:09;10.00;99.90
15765;DHT22;7983;50.744;7.086;2023-04-25T07:43:35;10.10;99.90
15765;DHT22;7983;50.744;7.086;2023-04-25T07:46:00;10.00;99.90
15765;DHT22;7983;50.744;7.086;2023-04-25T07:48:26;10.10;99.90
15765;DHT22;7983;50.744;7.086;2023-04-25T07:50:52;10.10;99.90
15765;DHT22;7983;50.744;7.086;2023-04-25T07:53:20;10.10;99.90
15765;DHT22;7983;50.744;7.086;2023-04-25T07:55:46;10.20;99.90
15765;DHT22;7983;50.744;7.086;2023-04-25T07:58:11;10.20;99.90
15765;DHT22;7983;50.744;7.086;2023-04-25T08:00:39;10.30;99.90
15765;DHT22;7983;50.744;7.086;2023-04-25T08:03:05;10.30;99.90
15765;DHT22;7983;50.744;7.086;2023-04-25T08:05:31;10.30;99.90
15765;DHT22;7983;50.744;7.086;2023-04-25T08:07:57;10.40;99.90
15765;DHT22;7983;50.744;7.086;2023-04-25T08:10:23;10.50;99.90
15765;DHT22;7983;50.744;7.086;2023-04-25T08:12:50;10.50;99.90
15765;DHT22;7983;50.744;7.086;2023-04-25T08:15:16;10.60;99.90
15765;DHT22;7983;50.744;7.086;2023-04-25T08:17:44;10.70;99.90
15765;DHT22;7983;50.744;7.086;2023-04-25T08:20:12;10.80;99.90
15765;DHT22;7983;50.744;7.086;2023-04-25T08:22:38;10.80;99.90
15765;DHT22;7983;50.744;7.086;2023-04-25T08:25:06;10.90;99.90
15765;DHT22;7983;50.744;7.086;2023-04-25T08:27:36;10.90;99.90
15765;DHT22;7983;50.744;7.086;2023-04-25T08:30:03;10.90;99.90
15765;DHT22;7983;50.744;7.086;2023-04-25T08:32:29;10.90;99.90
15765;DHT22;7983;50.744;7.086;2023-04-25T08:34:54;10.90;99.90
15765;DHT22;7983;50.744;7.086;2023-04-25T08:37:22;10.90;99.90
15765;DHT22;7983;50.744;7.086;2023-04-25T08:39:48;10.90;99.90
15765;DHT22;7983;50.744;7.086;2023-04-25T08:42:18;10.90;99.90
15765;DHT22;7983;50.744;7.086;2023-04-25T08:44:45;10.90;99.90
15765;DHT22;7983;50.744;7.086;2023-04-25T08:47:11;10.80;99.90
15765;DHT22;7983;50.744;7.086;2023-04-25T08:49:38;10.80;99.90
15765;DHT22;7983;50.744;7.086;2023-04-25T08:52:06;10.80;99.90
15765;DHT22;7983;50.744;7.086;2023-04-25T08:54:33;10.80;99.90
15765;DHT22;7983;50.744;7.086;2023-04-25T08:57:05;10.80;99.90
15765;DHT22;7983;50.744;7.086;2023-04-25T08:59:33;10.80;99.90
15765;DHT22;7983;50.744;7.086;2023-04-25T09:02:02;10.80;99.90
15765;DHT22;7983;50.744;7.086;2023-04-25T09:04:33;10.80;99.90
15765;DHT22;7983;50.744;7.086;2023-04-25T09:07:03;10.80;99.90
15765;DHT22;7983;50.744;7.086;2023-04-25T09:09:31;10.90;99.90
15765;DHT22;7983;50.744;7.086;2023-04-25T09:11:59;11.00;99.90
15765;DHT22;7983;50.744;7.086;2023-04-25T09:14:27;11.10;99.90
15765;DHT22;7983;50.744;7.086;2023-04-25T09:19:26;11.30;99.90
15765;DHT22;7983;50.744;7.086;2023-04-25T09:21:59;11.40;99.90
15765;DHT22;7983;50.744;7.086;2023-04-25T09:24:39;11.50;99.90
15765;DHT22;7983;50.744;7.086;2023-04-25T09:27:10;11.60;99.90
15765;DHT22;7983;50.744;7.086;2023-04-25T09:29:40;11.70;99.90
15765;DHT22;7983;50.744;7.086;2023-04-25T09:32:19;11.70;99.90
15765;DHT22;7983;50.744;7.086;2023-04-25T09:34:49;11.70;99.90
15765;DHT22;7983;50.744;7.086;2023-04-25T09:39:54;11.80;99.90
15765;DHT22;7983;50.744;7.086;2023-04-25T09:42:26;11.80;99.90
15765;DHT22;7983;50.744;7.086;2023-04-25T09:44:55;11.80;99.90
15765;DHT22;7983;50.744;7.086;2023-04-25T09:47:24;11.70;99.90
15765;DHT22;7983;50.744;7.086;2023-04-25T09:49:51;11.70;99.90
15765;DHT22;7983;50.744;7.086;2023-04-25T09:52:21;11.60;99.90
15765;DHT22;7983;50.744;7.086;2023-04-25T09:54:48;11.60;99.90
15765;DHT22;7983;50.744;7.086;2023-04-25T09:59:46;11.70;99.90
15765;DHT22;7983;50.744;7.086;2023-04-25T10:02:14;11.70;99.90
15765;DHT22;7983;50.744;7.086;2023-04-25T10:04:48;11.80;99.90
15765;DHT22;7983;50.744;7.086;2023-04-25T10:07:15;11.90;99.90
15765;DHT22;7983;50.744;7.086;2023-04-25T10:09:42;11.90;99.90
15765;DHT22;7983;50.744;7.086;2023-04-25T10:12:08;12.00;99.90
15765;DHT22;7983;50.744;7.086;2023-04-25T10:14:34;12.10;99.90
15765;DHT22;7983;50.744;7.086;2023-04-25T10:17:03;12.10;99.90
15765;DHT22;7983;50.744;7.086;2023-04-25T10:19:29;12.10;99.90
15765;DHT22;7983;50.744;7.086;2023-04-25T10:22:08;12.10;99.90
15765;DHT22;7983;50.744;7.086;2023-04-25T10:24:41;12.00;99.90
15765;DHT22;7983;50.744;7.086;2023-04-25T10:27:11;12.00;99.90
15765;DHT22;7983;50.744;7.086;2023-04-25T10:29:37;12.00;99.90
15765;DHT22;7983;50.744;7.086;2023-04-25T10:32:05;12.00;99.90
15765;DHT22;7983;50.744;7.086;2023-04-25T10:34:39;11.90;99.90
15765;DHT22;7983;50.744;7.086;2023-04-25T10:37:11;12.00;99.90
15765;DHT22;7983;50.744;7.086;2023-04-25T10:39:41;12.00;99.90
15765;DHT22;7983;50.744;7.086;2023-04-25T10:42:09;12.00;99.90
15765;DHT22;7983;50.744;7.086;2023-04-25T10:44:37;12.00;99.90
15765;DHT22;7983;50.744;7.086;2023-04-25T10:47:06;12.00;99.90
15765;DHT22;7983;50.744;7.086;2023-04-25T10:49:37;11.90;99.90
15765;DHT22;7983;50.744;7.086;2023-04-25T10:52:28;11.90;99.90
15765;DHT22;7983;50.744;7.086;2023-04-25T10:54:56;11.80;99.90
15765;DHT22;7983;50.744;7.086;2023-04-25T11:00:14;11.70;99.90
15765;DHT22;7983;50.744;7.086;2023-04-25T11:05:36;11.50;99.90
15765;DHT22;7983;50.744;7.086;2023-04-25T11:08:02;11.40;99.90
15765;DHT22;7983;50.744;7.086;2023-04-25T11:10:33;11.40;99.90
15765;DHT22;7983;50.744;7.086;2023-04-25T11:13:01;11.40;99.90
15765;DHT22;7983;50.744;7.086;2023-04-25T11:15:30;11.30;99.90
15765;DHT22;7983;50.744;7.086;2023-04-25T11:17:58;11.30;99.90
15765;DHT22;7983;50.744;7.086;2023-04-25T11:20:28;11.40;99.90
15765;DHT22;7983;50.744;7.086;2023-04-25T11:22:57;11.50;99.90
15765;DHT22;7983;50.744;7.086;2023-04-25T11:25:24;11.70;99.90
15765;DHT22;7983;50.744;7.086;2023-04-25T11:27:57;11.80;99.90
15765;DHT22;7983;50.744;7.086;2023-04-25T11:30:26;12.00;99.90
15765;DHT22;7983;50.744;7.086;2023-04-25T11:32:52;12.10;99.90
15765;DHT22;7983;50.744;7.086;2023-04-25T11:35:21;12.30;99.90
15765;DHT22;7983;50.744;7.086;2023-04-25T11:37:48;12.30;99.90
15765;DHT22;7983;50.744;7.086;2023-04-25T11:40:16;12.40;99.90
15765;DHT22;7983;50.744;7.086;2023-04-25T11:42:46;12.30;99.90
15765;DHT22;7983;50.744;7.086;2023-04-25T11:45:15;12.30;99.90
15765;DHT22;7983;50.744;7.086;2023-04-25T11:47:43;12.20;99.90
15765;DHT22;7983;50.744;7.086;2023-04-25T11:50:11;12.10;99.90
15765;DHT22;7983;50.744;7.086;2023-04-25T11:52:41;12.00;99.90
15765;DHT22;7983;50.744;7.086;2023-04-25T11:55:13;12.00;99.90
15765;DHT22;7983;50.744;7.086;2023-04-25T11:57:40;11.90;99.90
15765;DHT22;7983;50.744;7.086;2023-04-25T12:00:16;11.80;99.90
15765;DHT22;7983;50.744;7.086;2023-04-25T12:02:47;11.70;99.90
15765;DHT22;7983;50.744;7.086;2023-04-25T12:05:16;11.60;99.90
15765;DHT22;7983;50.744;7.086;2023-04-25T12:07:44;11.60;99.90
15765;DHT22;7983;50.744;7.086;2023-04-25T12:10:17;11.50;99.90
15765;DHT22;7983;50.744;7.086;2023-04-25T12:12:45;11.50;99.90
15765;DHT22;7983;50.744;7.086;2023-04-25T12:15:14;11.50;99.90
15765;DHT22;7983;50.744;7.086;2023-04-25T12:17:42;11.50;99.90
15765;DHT22;7983;50.744;7.086;2023-04-25T12:20:16;11.50;99.90
15765;DHT22;7983;50.744;7.086;2023-04-25T12:22:43;11.60;99.90
15765;DHT22;7983;50.744;7.086;2023-04-25T12:25:17;11.70;99.90
15765;DHT22;7983;50.744;7.086;2023-04-25T12:28:17;11.80;99.90
15765;DHT22;7983;50.744;7.086;2023-04-25T12:33:29;12.00;99.90
15765;DHT22;7983;50.744;7.086;2023-04-25T12:36:00;12.10;99.90
15765;DHT22;7983;50.744;7.086;2023-04-25T12:38:31;12.10;99.90
15765;DHT22;7983;50.744;7.086;2023-04-25T12:41:01;12.10;99.90
15765;DHT22;7983;50.744;7.086;2023-04-25T12:43:26;12.20;99.90
15765;DHT22;7983;50.744;7.086;2023-04-25T12:45:53;12.10;99.90
15765;DHT22;7983;50.744;7.086;2023-04-25T12:48:20;12.00;99.90
15765;DHT22;7983;50.744;7.086;2023-04-25T12:50:49;12.10;99.90
15765;DHT22;7983;50.744;7.086;2023-04-25T12:53:19;12.20;99.90
15765;DHT22;7983;50.744;7.086;2023-04-25T12:55:46;12.50;99.90
15765;DHT22;7983;50.744;7.086;2023-04-25T12:58:13;12.80;99.90
15765;DHT22;7983;50.744;7.086;2023-04-25T13:00:38;13.20;99.90
15765;DHT22;7983;50.744;7.086;2023-04-25T13:03:06;13.50;99.90
15765;DHT22;7983;50.744;7.086;2023-04-25T13:05:34;13.70;99.90
15765;DHT22;7983;50.744;7.086;2023-04-25T13:08:00;13.90;99.90
15765;DHT22;7983;50.744;7.086;2023-04-25T13:10:29;14.00;99.90
15765;DHT22;7983;50.744;7.086;2023-04-25T13:12:57;14.00;99.90
15765;DHT22;7983;50.744;7.086;2023-04-25T13:15:24;14.10;99.90
15765;DHT22;7983;50.744;7.086;2023-04-25T13:17:50;14.10;99.90
15765;DHT22;7983;50.744;7.086;2023-04-25T13:20:16;14.20;99.90
15765;DHT22;7983;50.744;7.086;2023-04-25T13:22:44;14.30;99.90
15765;DHT22;7983;50.744;7.086;2023-04-25T13:25:11;14.30;99.90
15765;DHT22;7983;50.744;7.086;2023-04-25T13:27:37;14.20;99.90
15765;DHT22;7983;50.744;7.086;2023-04-25T13:30:06;14.10;99.90
15765;DHT22;7983;50.744;7.086;2023-04-25T13:32:35;13.90;99.90
15765;DHT22;7983;50.744;7.086;2023-04-25T13:35:06;13.80;99.90
15765;DHT22;7983;50.744;7.086;2023-04-25T13:37:34;13.70;99.90
15765;DHT22;7983;50.744;7.086;2023-04-25T13:40:02;13.50;99.90
15765;DHT22;7983;50.744;7.086;2023-04-25T13:42:32;13.30;99.90
15765;DHT22;7983;50.744;7.086;2023-04-25T13:44:58;13.10;99.90
15765;DHT22;7983;50.744;7.086;2023-04-25T13:47:27;12.90;99.90
15765;DHT22;7983;50.744;7.086;2023-04-25T13:49:55;12.80;99.90
15765;DHT22;7983;50.744;7.086;2023-04-25T13:52:23;12.60;99.90
15765;DHT22;7983;50.744;7.086;2023-04-25T13:54:52;12.40;99.90
15765;DHT22;7983;50.744;7.086;2023-04-25T13:57:18;12.30;99.90
15765;DHT22;7983;50.744;7.086;2023-04-25T13:59:45;12.20;99.90
15765;DHT22;7983;50.744;7.086;2023-04-25T14:02:11;12.20;99.90
15765;DHT22;7983;50.744;7.086;2023-04-25T14:04:37;12.10;99.90
15765;DHT22;7983;50.744;7.086;2023-04-25T14:07:05;12.10;99.90
15765;DHT22;7983;50.744;7.086;2023-04-25T14:09:30;12.10;99.90
15765;DHT22;7983;50.744;7.086;2023-04-25T14:12:01;12.20;99.90
15765;DHT22;7983;50.744;7.086;2023-04-25T14:14:29;12.20;99.90
15765;DHT22;7983;50.744;7.086;2023-04-25T14:16:54;12.30;99.90
15765;DHT22;7983;50.744;7.086;2023-04-25T14:19:20;12.30;99.90
15765;DHT22;7983;50.744;7.086;2023-04-25T14:21:46;12.40;99.90
15765;DHT22;7983;50.744;7.086;2023-04-25T14:24:13;12.40;99.90
15765;DHT22;7983;50.744;7.086;2023-04-25T14:26:39;12.40;99.90
15765;DHT22;7983;50.744;7.086;2023-04-25T14:29:08;12.40;99.90
15765;DHT22;7983;50.744;7.086;2023-04-25T14:31:34;12.50;99.90
15765;DHT22;7983;50.744;7.086;2023-04-25T14:34:03;12.50;99.90
15765;DHT22;7983;50.744;7.086;2023-04-25T14:36:28;12.60;99.90
15765;DHT22;7983;50.744;7.086;2023-04-25T14:38:54;12.60;99.90
15765;DHT22;7983;50.744;7.086;2023-04-25T14:41:20;12.80;99.90
15765;DHT22;7983;50.744;7.086;2023-04-25T14:43:46;13.00;99.90
15765;DHT22;7983;50.744;7.086;2023-04-25T14:46:14;13.20;99.90
15765;DHT22;7983;50.744;7.086;2023-04-25T14:48:45;13.40;99.90
15765;DHT22;7983;50.744;7.086;2023-04-25T14:51:11;13.70;99.90
15765;DHT22;7983;50.744;7.086;2023-04-25T14:53:37;13.90;99.90
15765;DHT22;7983;50.744;7.086;2023-04-25T14:56:03;14.00;99.90
15765;DHT22;7983;50.744;7.086;2023-04-25T14:58:33;14.10;99.90
15765;DHT22;7983;50.744;7.086;2023-04-25T15:01:02;14.20;99.90
15765;DHT22;7983;50.744;7.086;2023-04-25T15:03:27;14.10;99.90
15765;DHT22;7983;50.744;7.086;2023-04-25T15:05:54;14.10;99.90
15765;DHT22;7983;50.744;7.086;2023-04-25T15:08:20;13.90;99.90
15765;DHT22;7983;50.744;7.086;2023-04-25T15:10:46;13.80;99.90
15765;DHT22;7983;50.744;7.086;2023-04-25T15:13:12;13.70;99.90
15765;DHT22;7983;50.744;7.086;2023-04-25T15:15:37;13.60;99.90
15765;DHT22;7983;50.744;7.086;2023-04-25T15:18:07;13.50;99.90
15765;DHT22;7983;50.744;7.086;2023-04-25T15:20:36;13.30;99.90
15765;DHT22;7983;50.744;7.086;2023-04-25T15:23:02;13.20;99.90
15765;DHT22;7983;50.744;7.086;2023-04-25T15:25:28;13.10;99.90
15765;DHT22;7983;50.744;7.086;2023-04-25T15:27:54;13.10;99.90
15765;DHT22;7983;50.744;7.086;2023-04-25T15:30:20;13.00;99.90
15765;DHT22;7983;50.744;7.086;2023-04-25T15:32:48;13.00;99.90
15765;DHT22;7983;50.744;7.086;2023-04-25T15:35:16;13.00;99.90
15765;DHT22;7983;50.744;7.086;2023-04-25T15:37:44;13.00;99.90
15765;DHT22;7983;50.744;7.086;2023-04-25T15:40:11;13.10;99.90
15765;DHT22;7983;50.744;7.086;2023-04-25T15:42:41;13.30;99.90
15765;DHT22;7983;50.744;7.086;2023-04-25T15:45:09;13.40;99.90
15765;DHT22;7983;50.744;7.086;2023-04-25T15:47:38;13.40;99.90
15765;DHT22;7983;50.744;7.086;2023-04-25T15:50:07;13.50;99.90
15765;DHT22;7983;50.744;7.086;2023-04-25T15:52:34;13.60;99.90
15765;DHT22;7983;50.744;7.086;2023-04-25T15:55:01;13.80;99.90
15765;DHT22;7983;50.744;7.086;2023-04-25T15:57:26;13.80;99.90
15765;DHT22;7983;50.744;7.086;2023-04-25T15:59:52;13.80;99.90
15765;DHT22;7983;50.744;7.086;2023-04-25T16:02:18;13.80;99.90
15765;DHT22;7983;50.744;7.086;2023-04-25T16:04:46;13.80;99.90
15765;DHT22;7983;50.744;7.086;2023-04-25T16:07:13;13.80;99.90
15765;DHT22;7983;50.744;7.086;2023-04-25T16:09:39;13.80;99.90
15765;DHT22;7983;50.744;7.086;2023-04-25T16:12:08;13.80;99.90